Capitol Logistics 2118

Operating for AJT



KHRL
Valley International Airport
Harlingen, Texas
KCVG
Cincinnati/Northern Kentucky International Airport
Covington, Kentucky

Activity Log

Date Flight Route Aircraft Duration
No Flights Yet

Route Details

Aircraft Information
Group: Boeing Common
Types: B752,B762,B763
Route Data
Demand: L
Distance: 1011nm
Duration: 2h 23m
Recm'd Route: CRP J29 IAH J101 LIT J131 PXV SARGO3
Origin Wx: KHRL 272052Z 14010KT 10SM FEW043 34/23 A2992 RMK AO2 SLP132 T03440233 58024
Dest. Wx: KCVG 272052Z 26008KT 9SM -TSRA FEW020CB BKN090 OVC110 16/16 A2977 RMK AO2 RAB14 TSB49 SLP077 OCNL LTGIC N-NE TS N-NE MOV E P0001 60001 T01610156 55002
Notes:

Financial History
Total Freight: 0lbs
Average Load: 0lbs/flt
Fuel Used: 0lbs
Avg. Fuel Used: 0lbs/flt
Fuel Expense: $0
Avg. Fuel Expense: $0
Avg. Fuel Cost: $0/lbs
Total Gross Income: $0
Pilot Pay: $0
Total Expenses: $0
Total Revenue: $0
Average Revenue: $0